Chisholm-hibbing, MN

9:13 PM CDT on August 01, 2014 (GMT -0500)
Grand Rapids-Itasca County-Newstrom Field (KGPZ) Elev 1355 ft | 47.21 °N, 93.51 °W | Change Station

Current weather conditions updated 18 minutes ago

Clear
Clear
64 °F
Feels Like 64 °F
N
0
Wind Variable Wind from North

Tomorrow is forecast to be Warmer than today. Isolated thunderstorms tomorrow night.

Today
High -- | Low -- °F
--% Chance of Precip.
Yesterday
High -- | Low -- °F
Precip. -- in
5:49 AM 8:44 PM
Waxing Crescent, 31% visible
Pressure 30.07 in
Visibility 9.0 miles
Clouds Clear
Dew Point 59 °F
Humidity 83%
Rainfall 0.00 in
Snow Depth Not available.
UV 0 out of 12
Pollen 5.90 out of 12
Air Quality Not available.
Flu Activity Not available.
METAR KGPZ 020155Z AUTO 00000KT 9SM CLR 18/15 A3007 RMK AO1

More Conditions Fewer Conditions

Pressure 30.07 in
Visibility 9.0 miles
Clouds Clear
Dew Point 59 °F
Humidity 83%
Rainfall 0.00 in
Snow Depth Not available.
UV 0 out of 12
Pollen 5.90 out of 12
Air Quality Not available.
Flu Activity Not available.
METAR KGPZ 020155Z AUTO 00000KT 9SM CLR 18/15 A3007 RMK AO1

More Conditions Fewer Conditions

10-Day Weather Forecast

Almanac

Astronomy

Aug. 01, 2014 Rise Set
Actual Time 5:49 AM CDT 8:44 PM CDT
Civil Twilight 5:13 AM CDT 9:20 PM CDT
Nautical Twilight 4:27 AM CDT 10:06 PM CDT
Astronomical Twilight 3:32 AM CDT 11:01 PM CDT
Moon 11:39 AM CDT (8/1) 11:02 PM CDT (8/1)
Length of Visible Light 16h 06m
Length of Day
14h 55m
Tomorrow will be 2m 41s shorter.
Waxing Crescent, 31% of the Moon is Illuminated
Today
Waxing Crescent
Aug 3
First Quarter
Aug 10
Full
Aug 17
Last Quarter
Aug 25
New

Today's Extremes

State Highs State Lows

Community

WunderPhotos

Upload Photos

1,739,805 photos uploaded!

Nearby

Snow Depth

Station Depth Elevation
No new snow has been reported.

Earthquake Activity

City Distance Mag. Time & Date
No recent earthquake activity has been reported nearby.
Minimum magnitude displayed is 2.5.

Coastal Water Temperatures

Place Temperature
No Stations Reporting

Nearby Weather Stations

Station Location Temp. Dew Point Humidity Wind Precip. Elev Updated Type
Leisure Lake,Mn, Makinen, MN 64.9 °F 61 °F 87% South  at  0.0 mph - / hr 1427 ft 9:03 PM CDT Normal

Show More Stations Show Fewer Stations